Time;durP1;ratioP1;P1;durP2;ratioP2;P2;SDS_P1;SDS_P2;PMS_P1;PMS_P2;Temp;Humidity;BMP_temperature;BMP_pressure;BME280_temperature;BME280_humidity;BME280_pressure;Samples;Min_cycle;Max_cycle;Signal;HPM_P1;HPM_P2
2021/06/22 00:00:24;;;;;;;16.38;3.90;;;23.90;96.70;;;;;;5075093;28;20020;-91
2021/06/22 00:02:51;;;;;;;13.93;3.58;;;23.90;96.50;;;;;;5075228;28;20115;-93
2021/06/22 00:05:18;;;;;;;17.92;4.05;;;23.90;96.40;;;;;;5075197;28;20020;-89
2021/06/22 00:07:49;;;;;;;23.10;4.43;;;23.80;96.30;;;;;;5075110;28;20027;-90
2021/06/22 00:10:17;;;;;;;10.13;3.97;;;23.80;96.10;;;;;;5078160;28;20027;-92
2021/06/22 00:12:43;;;;;;;13.77;4.45;;;23.70;96.00;;;;;;5076162;28;20052;-92
2021/06/22 00:15:11;;;;;;;20.23;4.55;;;23.80;96.00;;;;;;5074926;28;20020;-92
2021/06/22 00:17:38;;;;;;;16.25;4.65;;;23.70;95.90;;;;;;5074784;28;20024;-92
2021/06/22 00:20:06;;;;;;;13.80;3.90;;;23.70;95.90;;;;;;5074988;28;20516;-91
2021/06/22 00:22:32;;;;;;;13.43;4.03;;;23.60;95.70;;;;;;5074904;28;20036;-91
2021/06/22 00:24:57;;;;;;;41.33;5.57;;;23.60;95.80;;;;;;5074965;28;20436;-93
2021/06/22 00:27:23;;;;;;;14.43;3.83;;;23.60;95.80;;;;;;5074784;28;20021;-91
2021/06/22 00:29:50;;;;;;;8.45;3.30;;;23.60;95.80;;;;;;5074630;28;20028;-91
2021/06/22 00:32:17;;;;;;;12.52;4.10;;;23.60;95.90;;;;;;5074614;28;20048;-88
2021/06/22 00:34:44;;;;;;;23.20;4.63;;;23.50;95.90;;;;;;5074540;28;20039;-94
2021/06/22 00:37:11;;;;;;;10.35;3.97;;;23.50;95.90;;;;;;5074793;28;20078;-91
2021/06/22 00:39:36;;;;;;;9.40;3.47;;;23.60;95.80;;;;;;5074488;28;20031;-91
2021/06/22 00:42:02;;;;;;;11.75;3.83;;;23.60;95.80;;;;;;5075939;28;20021;-92
2021/06/22 00:44:28;;;;;;;11.25;3.60;;;23.50;95.60;;;;;;5074021;28;20023;-91
2021/06/22 00:46:54;;;;;;;8.30;3.60;;;23.60;95.60;;;;;;5075634;28;20050;-92
2021/06/22 00:49:19;;;;;;;12.45;4.05;;;23.60;95.60;;;;;;5074289;28;20032;-92
2021/06/22 00:51:45;;;;;;;11.77;3.88;;;23.60;95.50;;;;;;5074245;28;20061;-93
2021/06/22 00:54:11;;;;;;;9.38;4.63;;;23.60;95.30;;;;;;5074101;28;20035;-93
2021/06/22 00:56:37;;;;;;;9.02;3.78;;;23.60;95.30;;;;;;5073685;28;20094;-92
2021/06/22 00:59:03;;;;;;;18.15;4.28;;;23.60;95.10;;;;;;5074090;28;20132;-91
2021/06/22 01:01:30;;;;;;;24.45;4.50;;;23.60;95.00;;;;;;5075072;28;20463;-92
2021/06/22 01:03:56;;;;;;;16.58;4.30;;;23.60;94.90;;;;;;5074276;28;20048;-91
2021/06/22 01:06:22;;;;;;;9.48;3.30;;;23.60;94.80;;;;;;5073487;28;20075;-93
2021/06/22 01:08:49;;;;;;;13.40;4.22;;;23.60;94.80;;;;;;5074098;28;20086;-92
2021/06/22 01:11:16;;;;;;;17.52;4.00;;;23.60;94.90;;;;;;5073787;28;20028;-91
2021/06/22 01:13:42;;;;;;;10.48;3.92;;;23.50;94.80;;;;;;5073893;28;20020;-93
2021/06/22 01:16:20;;;;;;;10.10;3.28;;;23.50;94.90;;;;;;5073737;28;20056;-92
2021/06/22 01:18:46;;;;;;;14.13;4.28;;;23.50;95.10;;;;;;5073683;28;20024;-92
2021/06/22 01:21:16;;;;;;;21.92;4.40;;;23.50;95.10;;;;;;5073735;28;20028;-93
2021/06/22 01:23:41;;;;;;;35.25;5.30;;;23.50;95.10;;;;;;5073715;28;20054;-90
2021/06/22 01:26:07;;;;;;;8.68;3.53;;;23.40;95.10;;;;;;5073659;28;20123;-92
2021/06/22 01:28:33;;;;;;;21.58;4.35;;;23.40;95.10;;;;;;5073492;28;20027;-92
2021/06/22 01:31:00;;;;;;;14.32;4.30;;;23.30;95.10;;;;;;5073460;28;20028;-92
2021/06/22 01:33:26;;;;;;;14.60;3.67;;;23.30;95.10;;;;;;5073567;28;20035;-92
2021/06/22 01:35:51;;;;;;;10.75;3.78;;;23.30;95.00;;;;;;5073487;28;20021;-92
2021/06/22 01:38:17;;;;;;;10.55;3.58;;;23.30;95.00;;;;;;5073602;28;20052;-92
2021/06/22 01:40:50;;;;;;;42.35;5.53;;;23.40;95.00;;;;;;5073541;28;20024;-84
2021/06/22 01:43:16;;;;;;;15.70;3.90;;;23.40;94.60;;;;;;5074542;28;20095;-90
2021/06/22 01:45:42;;;;;;;14.77;3.85;;;23.40;94.50;;;;;;5073513;28;20438;-91
2021/06/22 01:48:08;;;;;;;18.50;4.00;;;23.30;94.50;;;;;;5090049;28;20394;-90
2021/06/22 01:50:34;;;;;;;9.57;3.80;;;23.40;94.30;;;;;;5073336;28;20086;-90
2021/06/22 01:53:00;;;;;;;6.80;3.45;;;23.40;94.50;;;;;;5073342;28;20385;-93
2021/06/22 01:55:42;;;;;;;11.35;3.63;;;23.30;94.30;;;;;;5073188;28;20028;-92
2021/06/22 01:58:10;;;;;;;10.90;4.03;;;23.30;94.30;;;;;;5072998;28;20053;-92
2021/06/22 02:00:37;;;;;;;10.85;3.70;;;23.30;94.30;;;;;;5073267;28;20029;-92
2021/06/22 02:03:04;;;;;;;9.20;3.70;;;23.30;94.30;;;;;;5073354;28;20028;-92
2021/06/22 02:05:30;;;;;;;8.82;2.97;;;23.30;94.30;;;;;;5073682;28;20021;-93
2021/06/22 02:07:55;;;;;;;12.20;3.17;;;23.30;94.40;;;;;;5073107;28;20070;-92
2021/06/22 02:10:21;;;;;;;11.55;3.35;;;23.30;94.40;;;;;;5073168;28;20063;-94
2021/06/22 02:12:47;;;;;;;8.50;3.40;;;23.30;94.30;;;;;;5073177;28;20162;-92
2021/06/22 02:15:13;;;;;;;11.35;3.47;;;23.30;94.20;;;;;;5073330;28;20478;-93
2021/06/22 02:17:39;;;;;;;9.88;2.80;;;23.30;94.00;;;;;;5073272;28;20032;-92
2021/06/22 02:20:06;;;;;;;9.82;3.10;;;23.40;93.90;;;;;;5076576;28;20032;-94
2021/06/22 02:22:33;;;;;;;13.50;3.70;;;23.40;93.70;;;;;;5077663;28;20080;-91
2021/06/22 02:25:00;;;;;;;14.02;3.63;;;23.40;93.60;;;;;;5078351;28;20029;-93
2021/06/22 02:27:28;;;;;;;10.95;3.45;;;23.40;93.30;;;;;;5076945;28;20486;-92
2021/06/22 02:29:54;;;;;;;12.05;3.50;;;23.40;93.00;;;;;;5076741;28;20021;-89
2021/06/22 02:32:20;;;;;;;10.00;3.22;;;23.40;92.80;;;;;;5076817;28;20028;-93
2021/06/22 02:34:46;;;;;;;14.60;3.75;;;23.40;92.60;;;;;;5076675;28;20024;-91
2021/06/22 02:37:12;;;;;;;6.50;2.90;;;23.40;92.50;;;;;;5076609;28;20032;-93
2021/06/22 02:39:37;;;;;;;21.95;4.07;;;23.30;92.60;;;;;;5077078;28;20489;-91
2021/06/22 02:42:04;;;;;;;10.18;3.50;;;23.40;92.50;;;;;;5076589;28;20032;-91
2021/06/22 02:44:30;;;;;;;15.82;3.70;;;23.40;92.50;;;;;;5076678;28;20078;-91
2021/06/22 02:46:55;;;;;;;8.73;2.90;;;23.40;92.40;;;;;;5076246;28;20040;-92
2021/06/22 02:49:21;;;;;;;10.70;3.25;;;23.40;92.20;;;;;;5076449;28;20063;-91
2021/06/22 18:37:50;;;;;;;9.18;3.10;;;26.60;85.60;;;;;;5092013;27;20894;-86
2021/06/22 18:40:19;;;;;;;13.02;3.00;;;26.20;82.50;;;;;;5091607;28;20020;-87
2021/06/22 18:42:47;;;;;;;5.30;2.95;;;26.20;84.00;;;;;;5089851;28;20023;-86
2021/06/22 18:45:14;;;;;;;14.27;3.30;;;26.10;84.40;;;;;;5091124;28;20046;-87
2021/06/22 18:47:39;;;;;;;8.23;2.53;;;26.10;85.10;;;;;;5089729;28;20020;-85
2021/06/22 18:50:07;;;;;;;11.00;3.80;;;26.10;85.70;;;;;;5091044;28;20098;-85
2021/06/22 18:52:33;;;;;;;14.00;6.03;;;26.00;85.80;;;;;;5091008;28;20030;-89
2021/06/22 18:54:58;;;;;;;13.10;6.88;;;26.00;86.50;;;;;;5089656;28;20111;-86
2021/06/22 18:57:24;;;;;;;11.13;4.88;;;26.00;86.70;;;;;;5091076;28;20021;-85
2021/06/22 18:59:50;;;;;;;12.20;5.35;;;26.00;86.90;;;;;;5089568;28;20039;-85
2021/06/22 19:02:15;;;;;;;9.30;4.28;;;26.00;86.90;;;;;;5091007;28;20031;-86
2021/06/22 19:04:41;;;;;;;12.70;3.78;;;26.00;87.20;;;;;;5074895;28;20025;-85
2021/06/22 19:07:07;;;;;;;7.10;3.10;;;26.00;87.70;;;;;;5070092;28;20482;-85
2021/06/22 19:09:32;;;;;;;6.03;3.05;;;26.00;88.20;;;;;;5069022;28;20025;-85
2021/06/22 19:11:59;;;;;;;8.60;2.67;;;26.00;88.20;;;;;;5085936;28;20025;-86
2021/06/22 19:14:34;;;;;;;7.10;3.10;;;26.00;88.50;;;;;;5069604;28;20027;-85
2021/06/22 19:17:00;;;;;;;5.40;2.50;;;25.90;88.50;;;;;;5068933;28;20390;-85
2021/06/22 19:19:26;;;;;;;5.75;2.33;;;26.00;88.60;;;;;;5070178;28;20025;-86
2021/06/22 19:21:53;;;;;;;8.02;2.90;;;25.90;88.50;;;;;;5068899;28;20021;-85
2021/06/22 19:24:20;;;;;;;6.28;2.72;;;25.90;88.80;;;;;;5070072;28;20059;-85
2021/06/22 19:26:46;;;;;;;6.50;2.67;;;25.80;88.90;;;;;;5085736;28;20021;-85
2021/06/22 19:29:12;;;;;;;4.25;2.63;;;25.80;89.10;;;;;;5069978;28;20021;-85
2021/06/22 19:31:38;;;;;;;7.07;3.00;;;25.80;89.30;;;;;;5070236;28;20021;-86
2021/06/22 19:34:04;;;;;;;17.73;3.20;;;25.80;89.80;;;;;;5069911;28;20043;-85
2021/06/22 19:36:30;;;;;;;14.95;3.80;;;25.70;90.00;;;;;;5069743;28;20048;-85
2021/06/22 19:38:56;;;;;;;24.13;4.70;;;25.70;90.10;;;;;;5069702;28;20104;-85
2021/06/22 19:41:22;;;;;;;3.90;2.53;;;25.60;90.10;;;;;;5069701;28;20052;-85
2021/06/22 19:43:53;;;;;;;8.23;3.10;;;25.60;90.40;;;;;;5068327;28;20387;-85
2021/06/22 19:46:22;;;;;;;26.58;4.60;;;25.50;90.50;;;;;;5068361;28;20032;-85
2021/06/22 19:48:51;;;;;;;5.43;2.90;;;25.50;90.70;;;;;;5058702;28;20459;-85
2021/06/22 19:51:23;;;;;;;5.35;2.92;;;25.50;90.80;;;;;;5056417;28;20036;-85
2021/06/22 19:53:50;;;;;;;8.20;2.70;;;25.50;90.90;;;;;;5056378;28;20032;-85
2021/06/22 19:56:16;;;;;;;7.72;3.30;;;25.40;91.00;;;;;;5056147;28;20025;-85
2021/06/22 19:58:42;;;;;;;9.95;3.85;;;25.40;91.00;;;;;;5056205;28;20021;-84
2021/06/22 20:01:12;;;;;;;7.63;3.08;;;25.40;91.10;;;;;;5062350;28;20118;-85
2021/06/22 20:03:37;;;;;;;9.88;3.63;;;25.40;91.20;;;;;;5076139;28;20024;-85
2021/06/22 20:06:03;;;;;;;9.40;4.03;;;25.40;91.30;;;;;;5074960;28;20024;-85
2021/06/22 20:08:29;;;;;;;9.38;3.90;;;25.30;91.40;;;;;;5074856;28;20035;-85
2021/06/22 20:10:54;;;;;;;6.18;3.25;;;25.30;91.50;;;;;;5074753;28;20090;-85
2021/06/22 20:13:20;;;;;;;6.40;3.83;;;25.30;91.90;;;;;;5074982;28;20024;-85
2021/06/22 20:15:46;;;;;;;6.57;3.83;;;25.30;91.70;;;;;;5074548;28;20028;-85
2021/06/22 20:18:12;;;;;;;8.43;4.22;;;25.20;91.80;;;;;;5075827;28;20438;-84
2021/06/22 20:20:38;;;;;;;11.00;4.53;;;25.20;91.90;;;;;;5075818;28;20021;-84
2021/06/22 20:23:06;;;;;;;12.73;3.97;;;25.10;92.00;;;;;;5074508;28;20467;-85
2021/06/22 20:25:32;;;;;;;10.07;4.07;;;25.10;92.00;;;;;;5075707;28;20020;-84
2021/06/22 20:27:57;;;;;;;9.35;4.45;;;25.10;92.10;;;;;;5074355;28;20070;-84
2021/06/22 20:30:24;;;;;;;10.70;4.57;;;25.00;92.20;;;;;;5075676;28;20444;-87
2021/06/22 20:32:49;;;;;;;10.65;4.28;;;25.00;92.50;;;;;;5075474;28;20155;-83
2021/06/22 20:35:15;;;;;;;13.10;4.13;;;24.90;92.60;;;;;;5075535;28;20025;-85
2021/06/22 20:37:41;;;;;;;10.57;6.25;;;24.90;92.80;;;;;;5073966;28;20131;-79
2021/06/22 20:40:09;;;;;;;20.80;5.97;;;24.90;92.90;;;;;;5074181;28;20384;-85
2021/06/22 20:42:35;;;;;;;12.05;6.43;;;24.90;93.00;;;;;;5074164;28;20020;-83
2021/06/22 20:45:03;;;;;;;9.73;4.45;;;25.00;92.90;;;;;;5074125;28;20029;-87
2021/06/22 20:47:29;;;;;;;7.78;4.07;;;24.90;92.80;;;;;;5074078;28;20112;-85
2021/06/22 20:49:55;;;;;;;11.43;4.07;;;25.00;92.80;;;;;;5075206;28;20060;-85
2021/06/22 20:52:20;;;;;;;8.10;3.65;;;25.00;92.50;;;;;;5075193;28;20087;-84
2021/06/22 20:54:46;;;;;;;8.65;3.53;;;25.00;92.40;;;;;;5075181;28;20410;-84
2021/06/22 20:57:12;;;;;;;7.28;3.13;;;25.10;92.20;;;;;;5075010;28;20360;-84
2021/06/22 20:59:38;;;;;;;8.52;3.25;;;25.10;92.20;;;;;;5072817;28;20124;-87
2021/06/22 21:02:09;;;;;;;9.25;3.40;;;25.20;91.90;;;;;;5073712;28;20031;-85
2021/06/22 21:04:34;;;;;;;10.45;3.03;;;25.20;91.80;;;;;;5073714;28;20044;-85
2021/06/22 21:07:00;;;;;;;6.85;3.20;;;25.20;91.80;;;;;;5075241;28;20025;-84
2021/06/22 21:09:26;;;;;;;4.45;2.83;;;25.20;91.70;;;;;;5074863;28;20025;-85
2021/06/22 21:11:52;;;;;;;7.38;3.25;;;25.20;91.80;;;;;;5073536;28;20028;-85
2021/06/22 21:14:19;;;;;;;6.18;3.10;;;25.20;91.60;;;;;;5075119;28;20031;-85
2021/06/22 21:16:44;;;;;;;6.40;2.63;;;25.20;91.40;;;;;;5073299;28;20024;-84
2021/06/22 21:19:10;;;;;;;5.82;2.83;;;25.20;91.70;;;;;;5074708;28;20031;-84
2021/06/22 21:21:36;;;;;;;5.00;2.90;;;25.20;91.50;;;;;;5074680;28;20016;-84
2021/06/22 21:24:03;;;;;;;6.13;2.40;;;25.20;91.70;;;;;;5074580;28;20016;-84
2021/06/22 21:26:29;;;;;;;5.55;2.55;;;25.20;91.70;;;;;;5074809;28;20454;-84
2021/06/22 21:28:55;;;;;;;4.90;2.58;;;25.20;91.70;;;;;;5073262;28;20056;-84
2021/06/22 21:31:21;;;;;;;3.17;2.60;;;25.10;91.50;;;;;;5074448;28;20063;-84
2021/06/22 21:33:47;;;;;;;7.60;3.35;;;25.10;91.70;;;;;;5074420;28;20024;-84
2021/06/22 21:36:12;;;;;;;4.68;3.03;;;25.10;91.80;;;;;;5072780;28;20402;-84
2021/06/22 21:38:38;;;;;;;13.75;3.33;;;25.10;91.80;;;;;;5074314;28;20085;-85
2021/06/22 21:41:05;;;;;;;5.75;2.88;;;25.00;91.80;;;;;;5074542;28;20021;-85
2021/06/22 21:43:31;;;;;;;4.00;2.78;;;25.00;91.80;;;;;;5074194;28;20123;-85
2021/06/22 21:45:57;;;;;;;5.05;2.78;;;25.00;91.80;;;;;;5074186;28;20027;-85
2021/06/22 21:48:22;;;;;;;9.27;2.80;;;25.00;91.80;;;;;;5074392;28;20029;-85
2021/06/22 21:50:48;;;;;;;5.13;2.70;;;25.00;91.60;;;;;;5072812;28;20429;-84
2021/06/22 21:53:15;;;;;;;6.18;3.20;;;25.00;91.80;;;;;;5074061;28;20074;-84
2021/06/22 21:55:40;;;;;;;7.43;3.10;;;24.90;91.90;;;;;;5072619;28;20398;-84
2021/06/22 21:58:08;;;;;;;3.72;2.67;;;24.90;91.70;;;;;;5074038;28;20034;-84
2021/06/22 22:00:34;;;;;;;5.38;2.67;;;24.90;91.70;;;;;;5072701;28;20029;-84
2021/06/22 22:03:02;;;;;;;6.75;2.90;;;24.90;91.60;;;;;;5073932;28;20070;-84
2021/06/22 22:05:29;;;;;;;11.05;2.67;;;24.90;91.50;;;;;;5072629;28;20112;-85
2021/06/22 22:07:54;;;;;;;6.75;3.08;;;24.90;91.50;;;;;;5073874;28;20040;-84
2021/06/22 22:10:21;;;;;;;4.47;2.90;;;25.00;91.50;;;;;;5073560;28;20025;-84
2021/06/22 22:12:47;;;;;;;7.95;2.92;;;24.90;91.60;;;;;;5072554;28;20025;-85
2021/06/22 22:15:13;;;;;;;7.78;3.00;;;24.90;91.60;;;;;;5074063;28;20489;-86
2021/06/22 22:17:39;;;;;;;8.00;2.55;;;25.00;91.50;;;;;;5072413;28;20081;-85
2021/06/22 22:20:08;;;;;;;7.50;2.78;;;25.00;91.40;;;;;;5073749;28;20017;-85
2021/06/22 22:22:34;;;;;;;6.75;3.00;;;25.00;91.30;;;;;;5072450;28;20032;-85
2021/06/22 22:24:59;;;;;;;7.47;3.00;;;25.00;91.30;;;;;;5073974;28;20024;-85
2021/06/22 22:27:26;;;;;;;10.98;2.90;;;25.00;91.30;;;;;;5073957;28;20458;-85
2021/06/22 22:29:52;;;;;;;5.68;2.90;;;25.00;91.30;;;;;;5073639;28;20031;-85
2021/06/22 22:32:20;;;;;;;5.93;2.78;;;24.90;91.30;;;;;;5072401;28;20534;-84
2021/06/22 22:34:47;;;;;;;14.27;3.00;;;25.00;91.40;;;;;;5072267;28;20028;-86
2021/06/22 22:37:13;;;;;;;6.30;3.05;;;25.00;91.40;;;;;;5073333;28;20070;-85
2021/06/22 22:39:39;;;;;;;7.68;3.00;;;25.00;91.30;;;;;;5073486;28;20040;-86
2021/06/22 22:42:06;;;;;;;7.65;3.00;;;24.90;91.30;;;;;;5072256;28;20020;-85
2021/06/22 22:44:31;;;;;;;6.93;3.17;;;25.00;91.30;;;;;;5073417;28;20074;-85
2021/06/22 22:46:57;;;;;;;3.85;2.75;;;25.00;91.30;;;;;;5073791;28;20432;-85
2021/06/22 22:49:24;;;;;;;8.85;3.30;;;25.00;91.40;;;;;;5073392;28;20025;-85
2021/06/22 22:51:50;;;;;;;7.43;3.00;;;25.00;91.30;;;;;;5072232;28;20025;-86
2021/06/22 22:54:15;;;;;;;9.38;3.45;;;25.00;91.30;;;;;;5072167;28;20082;-85
2021/06/22 22:56:41;;;;;;;5.20;3.08;;;25.10;91.20;;;;;;5072026;28;20393;-85
2021/06/22 22:59:07;;;;;;;7.07;2.88;;;25.00;91.10;;;;;;5073348;28;20017;-85
2021/06/22 23:01:32;;;;;;;6.50;3.03;;;25.10;91.00;;;;;;5073311;28;20027;-85
2021/06/22 23:03:58;;;;;;;6.70;2.85;;;25.10;91.00;;;;;;5072061;28;20110;-85
2021/06/22 23:06:24;;;;;;;5.20;2.80;;;25.10;90.90;;;;;;5073236;28;20492;-85
2021/06/22 23:08:49;;;;;;;4.43;2.65;;;25.10;90.70;;;;;;5072039;28;20091;-85
2021/06/22 23:11:15;;;;;;;5.55;2.90;;;25.10;90.70;;;;;;5073189;28;20489;-85
2021/06/22 23:13:41;;;;;;;6.85;3.05;;;25.00;90.90;;;;;;5071958;28;20029;-85
2021/06/22 23:16:07;;;;;;;5.10;3.38;;;25.00;90.80;;;;;;5071900;28;20115;-85
2021/06/22 23:18:33;;;;;;;4.75;2.75;;;25.10;90.90;;;;;;5073436;28;20021;-85
2021/06/22 23:20:59;;;;;;;6.57;3.40;;;25.00;90.90;;;;;;5073480;28;20071;-84
2021/06/22 23:23:25;;;;;;;6.90;2.80;;;25.00;90.90;;;;;;5073994;28;20032;-85
2021/06/22 23:25:52;;;;;;;3.53;2.75;;;24.90;90.90;;;;;;5075507;28;20033;-84
2021/06/22 23:28:18;;;;;;;6.65;3.05;;;24.90;90.90;;;;;;5075514;28;20117;-84
2021/06/22 23:30:44;;;;;;;8.27;3.03;;;24.90;91.30;;;;;;5075486;28;20059;-84
2021/06/22 23:33:10;;;;;;;5.32;3.15;;;24.90;91.30;;;;;;5076716;28;20435;-84
2021/06/22 23:35:35;;;;;;;3.58;2.65;;;24.90;91.30;;;;;;5076341;28;20039;-84
2021/06/22 23:38:01;;;;;;;4.07;2.92;;;24.80;91.40;;;;;;5075371;28;20105;-85
2021/06/22 23:40:27;;;;;;;7.78;2.78;;;24.80;91.30;;;;;;5076605;28;20029;-84
2021/06/22 23:42:52;;;;;;;7.05;2.63;;;24.80;91.30;;;;;;5075285;28;20488;-85
2021/06/22 23:45:18;;;;;;;4.22;2.83;;;24.80;91.30;;;;;;5076612;28;20016;-85
2021/06/22 23:47:44;;;;;;;3.85;2.60;;;24.70;91.30;;;;;;5075200;28;20078;-85
2021/06/22 23:50:10;;;;;;;4.65;2.80;;;24.70;91.10;;;;;;5075140;28;20047;-85
2021/06/22 23:52:36;;;;;;;9.15;2.90;;;24.70;90.90;;;;;;5076323;28;20439;-84
2021/06/22 23:55:03;;;;;;;4.72;3.00;;;24.70;91.20;;;;;;5056328;28;20057;-85
2021/06/22 23:57:29;;;;;;;5.93;3.13;;;24.60;91.30;;;;;;5056159;28;20017;-85
2021/06/22 23:59:54;;;;;;;7.40;3.20;;;24.60;91.50;;;;;;5055008;28;20075;-85
